This is the latest recevied weather packets stored in our database for station/object KC0UFP. If no packets are shown the sender has not sent any weather packets the latest 10 day(s).
| Time | Temp. | Humidity | Pressure | Rain* | Wind** | Luminosity | Snow |
|---|---|---|---|---|---|---|---|
| 1777828195 | 19.44° C | 41% | 1020.2 hPa | 0 mm | - | 1009 W/m² | - |
| 1777826073 | 18.33° C | 46% | 1020.7 hPa | 0 mm | - | 971 W/m² | - |
| 1777825769 | 17.78° C | 46% | 1020.7 hPa | 0 mm | - | 963 W/m² | - |
| 1777821529 | 16.67° C | 53% | 1021.8 hPa | 0 mm | - | 786 W/m² | - |
| 1777820316 | 16.11° C | 52% | 1021.6 hPa | 0 mm | - | 716 W/m² | - |
| 1777819106 | 15.56° C | 57% | 1021.5 hPa | 0 mm | - | 640 W/m² | - |
| 1777818499 | 15° C | 58% | 1021.3 hPa | 0 mm | - | 601 W/m² | - |
| 1777817590 | 14.44° C | 60% | 1021.6 hPa | 0 mm | - | 533 W/m² | - |
| 1777814862 | 12.78° C | 72% | 1021.6 hPa | 0 mm | - | 339 W/m² | - |
| 1777813651 | 12.22° C | 77% | 1021.6 hPa | 0 mm | - | 258 W/m² | - |
| 1777811835 | 10.56° C | 81% | 1021.4 hPa | 0 mm | - | 153 W/m² | - |
| 1777811533 | 10° C | 81% | 1021.4 hPa | 0 mm | - | 139 W/m² | - |
| 1777811229 | 10° C | 83% | 1021.4 hPa | 0 mm | - | 115 W/m² | - |
| 1777810926 | 9.44° C | 83% | 1021.3 hPa | 0 mm | - | 99 W/m² | - |
| 1777810320 | 9.44° C | 82% | 1021.3 hPa | 0 mm | - | 85 W/m² | - |
| 1777810015 | 9.44° C | 83% | 1021.3 hPa | 0 mm | - | 77 W/m² | - |
| 1777809714 | 9.44° C | 84% | 1021.3 hPa | 0 mm | - | 69 W/m² | - |
| 1777809410 | 8.89° C | 85% | 1021.3 hPa | 0 mm | - | 61 W/m² | - |
| 1777808200 | 7.22° C | 89% | 1021.1 hPa | 0 mm | - | 35 W/m² | - |
| 1777806988 | 5.56° C | 94% | 1020.9 hPa | 0 mm | - | 12 W/m² | - |
| 1777806685 | 5° C | 94% | 1020.8 hPa | 0 mm | - | 7 W/m² | - |
| 1777806381 | 5° C | 93% | 1020.8 hPa | 0 mm | - | 4 W/m² | - |
| 1777806078 | 5.56° C | 93% | 1020.6 hPa | 0 mm | - | 2 W/m² | - |
| 1777804263 | 5.56° C | 91% | 1020.5 hPa | 0 mm | - | 0 W/m² | - |
| 1777803960 | 5.56° C | 89% | 1020.8 hPa | 0 mm | - | 0 W/m² | - |
* Rain latest hour (hover to see other rain measurements)
** Current wind speed in m/s (hover to see current wind gust speed)